Time;durP1;ratioP1;P1;durP2;ratioP2;P2;SDS_P1;SDS_P2;PMS_P1;PMS_P2;Temp;Humidity;BMP_temperature;BMP_pressure;BME280_temperature;BME280_humidity;BME280_pressure;Samples;Min_cycle;Max_cycle;Signal;HPM_P1;HPM_P2
2021/12/17 00:02:17;;;;;;;19.00;11.63;;;;;;;3.65;93.13;95629.31;4994941;28;20807;-80
2021/12/17 00:04:52;;;;;;;12.23;9.87;;;;;;;3.59;93.55;95632.19;4994536;28;20516;-80
2021/12/17 00:07:20;;;;;;;15.47;10.70;;;;;;;3.63;92.86;95631.13;4994983;28;20958;-80
2021/12/17 00:09:50;;;;;;;13.33;9.23;;;;;;;3.69;92.58;95633.44;4994727;28;20458;-80
2021/12/17 00:12:22;;;;;;;15.23;10.20;;;;;;;3.67;93.21;95640.47;4995277;28;20448;-80
2021/12/17 00:14:50;;;;;;;12.50;10.37;;;;;;;3.73;92.97;95629.78;4994540;28;20499;-80
2021/12/17 00:17:24;;;;;;;14.00;9.63;;;;;;;3.77;93.60;95638.31;4994848;28;20800;-80
2021/12/17 00:20:11;;;;;;;18.40;10.97;;;;;;;3.78;92.41;95633.97;4994549;28;21020;-80
2021/12/17 00:50:25;;;;;;;15.80;10.10;;;;;;;3.58;92.82;95638.28;4985293;28;20417;-80
2021/12/17 00:52:52;;;;;;;27.67;14.90;;;;;;;3.56;92.64;95634.94;4986322;28;20497;-80
2021/12/17 00:55:20;;;;;;;22.13;12.00;;;;;;;3.61;93.21;95640.75;4986893;28;20505;-80
2021/12/17 00:57:47;;;;;;;17.33;10.50;;;;;;;3.62;92.49;95633.81;4985955;28;20445;-80
2021/12/17 01:00:17;;;;;;;24.50;14.60;;;;;;;3.61;92.16;95639.91;4952629;28;20818;-80
2021/12/17 01:02:45;;;;;;;17.53;11.17;;;;;;;3.63;91.89;95641.50;4984997;28;20440;-80
2021/12/17 01:05:16;;;;;;;19.00;13.23;;;;;;;3.68;91.78;95641.31;4986095;28;20452;-80
2021/12/17 01:07:47;;;;;;;16.20;10.53;;;;;;;3.77;91.64;95630.53;4986301;28;20472;-80
2021/12/17 01:10:19;;;;;;;13.33;8.77;;;;;;;3.85;90.68;95628.41;5065505;28;20448;-79
2021/12/17 01:12:46;;;;;;;14.80;11.10;;;;;;;3.89;90.17;95629.94;5065204;28;20479;-80
2021/12/17 01:15:19;;;;;;;11.70;9.10;;;;;;;3.91;88.42;95628.09;5065994;28;20495;-80
2021/12/17 01:17:49;;;;;;;13.57;8.33;;;;;;;3.91;88.61;95622.06;5066895;28;20449;-80
2021/12/17 01:20:34;;;;;;;13.13;9.63;;;;;;;3.92;88.23;95622.00;5067621;28;20437;-80
2021/12/17 01:23:15;;;;;;;16.07;10.73;;;;;;;3.99;88.19;95622.53;5066672;28;20449;-80
2021/12/17 01:35:20;;;;;;;20.70;12.20;;;;;;;4.06;88.15;95626.56;5065927;28;20445;-80
2021/12/17 01:37:19;;;;;;;20.43;12.27;;;;;;;3.99;86.39;95612.16;5067168;28;20464;-80
2021/12/17 01:42:24;;;;;;;15.80;10.93;;;;;;;4.03;86.22;95611.09;5026360;28;20459;-80
2021/12/17 01:44:51;;;;;;;13.77;8.87;;;;;;;4.13;86.83;95601.97;5024120;28;20442;-80
2021/12/17 01:47:19;;;;;;;20.37;13.50;;;;;;;4.13;85.31;95591.59;5025000;28;20470;-79
2021/12/17 02:00:51;;;;;;;7.80;6.50;;;;;;;4.06;83.82;95586.75;5030656;28;21210;-80
2021/12/17 02:03:19;;;;;;;7.93;6.80;;;;;;;4.11;83.63;95589.97;5028369;28;20450;-80
2021/12/17 02:05:46;;;;;;;8.10;6.30;;;;;;;4.12;84.37;95594.25;5026105;28;20990;-80
2021/12/17 02:08:15;;;;;;;8.30;6.80;;;;;;;4.14;84.30;95590.66;5025255;28;20855;-80
2021/12/17 02:22:17;;;;;;;6.83;5.70;;;;;;;3.92;84.75;95593.44;4977212;28;20480;-80
2021/12/17 02:30:38;;;;;;;7.37;6.03;;;;;;;3.94;84.61;95581.22;4919817;29;20513;-80
2021/12/17 02:33:33;;;;;;;7.30;5.70;;;;;;;3.95;84.53;95574.28;4919577;29;20539;-80
2021/12/17 02:36:01;;;;;;;7.70;5.73;;;;;;;3.97;84.81;95575.03;4919190;29;20491;-80
2021/12/17 02:38:35;;;;;;;11.33;5.90;;;;;;;4.01;84.70;95580.00;4918895;29;20798;-80
2021/12/17 02:46:42;;;;;;;8.47;5.97;;;;;;;4.07;84.91;95575.47;4866958;29;20426;-80
2021/12/17 02:49:11;;;;;;;7.37;5.60;;;;;;;4.04;84.81;95579.84;4873046;29;20465;-80
2021/12/17 02:51:38;;;;;;;9.97;6.60;;;;;;;4.08;85.13;95572.78;4874275;29;20460;-80
2021/12/17 02:54:07;;;;;;;7.90;7.10;;;;;;;4.15;84.79;95576.75;4949530;29;20453;-80
2021/12/17 02:56:35;;;;;;;11.80;7.60;;;;;;;4.17;84.16;95574.94;4966568;29;20552;-80
2021/12/17 02:59:02;;;;;;;8.27;6.50;;;;;;;4.24;85.09;95581.50;4932314;29;20441;-80
2021/12/17 03:01:29;;;;;;;10.70;7.33;;;;;;;4.32;84.24;95578.50;4956774;29;20450;-80
2021/12/17 03:03:57;;;;;;;9.80;7.20;;;;;;;4.37;83.59;95581.75;4969589;28;20481;-80
2021/12/17 03:06:24;;;;;;;10.83;8.83;;;;;;;4.38;84.25;95574.81;5014899;28;20814;-80
2021/12/17 03:08:51;;;;;;;10.40;8.07;;;;;;;4.50;83.90;95584.56;5015556;28;20431;-80
2021/12/17 03:11:19;;;;;;;8.13;6.57;;;;;;;4.47;84.10;95587.31;5016571;28;20447;-79
2021/12/17 03:13:48;;;;;;;13.10;8.40;;;;;;;4.42;84.64;95578.91;5015358;28;20474;-79
2021/12/17 03:16:26;;;;;;;10.87;5.90;;;;;;;4.42;84.98;95581.53;5015807;28;20479;-80
2021/12/17 03:19:08;;;;;;;9.30;6.30;;;;;;;4.49;85.42;95585.50;5014552;28;20475;-80
2021/12/17 03:24:22;;;;;;;11.10;6.83;;;;;;;4.50;85.20;95577.63;5037277;28;20435;-80
2021/12/17 03:26:50;;;;;;;10.27;8.10;;;;;;;4.54;84.55;95586.09;5056558;28;20453;-80
2021/12/17 03:29:19;;;;;;;12.40;8.57;;;;;;;4.58;84.47;95567.66;5056153;28;20450;-80
2021/12/17 03:31:46;;;;;;;14.83;10.63;;;;;;;4.71;85.05;95573.09;5056206;28;20437;-80
2021/12/17 03:34:17;;;;;;;20.77;13.73;;;;;;;4.72;84.80;95560.94;5056255;28;20945;-80
2021/12/17 03:36:47;;;;;;;25.90;13.90;;;;;;;4.69;85.31;95567.13;5056092;28;20567;-80
2021/12/17 03:39:14;;;;;;;22.20;13.90;;;;;;;4.62;85.70;95566.59;5056160;28;20444;-80
2021/12/17 03:41:47;;;;;;;24.20;14.37;;;;;;;4.55;86.17;95574.78;5055799;28;20433;-80
2021/12/17 03:47:37;;;;;;;21.57;15.53;;;;;;;4.44;88.10;95569.28;5054979;28;20430;-80
2021/12/17 03:50:05;;;;;;;22.93;13.13;;;;;;;4.49;89.01;95564.69;5055996;28;20444;-80
2021/12/17 03:52:32;;;;;;;19.73;13.20;;;;;;;4.48;89.17;95550.88;5056479;28;20520;-80
2021/12/17 03:55:00;;;;;;;14.30;11.20;;;;;;;4.49;88.66;95556.91;5055827;28;20469;-80
2021/12/17 03:57:27;;;;;;;14.80;8.73;;;;;;;4.56;88.09;95547.88;5055929;28;21080;-80
2021/12/17 04:13:30;;;;;;;13.67;9.17;;;;;;;4.37;93.43;95531.56;5054772;28;20536;-80
2021/12/17 04:16:00;;;;;;;13.90;7.83;;;;;;;4.29;94.21;95534.50;5056054;28;20476;-80
2021/12/17 04:18:28;;;;;;;11.87;8.70;;;;;;;4.24;95.63;95526.09;5054954;28;20433;-80
2021/12/17 04:20:55;;;;;;;16.20;10.47;;;;;;;4.20;96.83;95530.63;5055420;28;20446;-80
2021/12/17 04:23:23;;;;;;;12.30;9.33;;;;;;;4.21;97.81;95515.88;5055721;28;20422;-80
2021/12/17 04:25:50;;;;;;;11.17;9.00;;;;;;;4.21;98.45;95514.13;5054972;28;20434;-80
2021/12/17 04:28:18;;;;;;;16.10;7.50;;;;;;;4.17;99.58;95503.97;5054218;28;20805;-80
2021/12/17 04:30:49;;;;;;;10.90;7.73;;;;;;;4.03;100.00;95500.28;5054368;28;20445;-80
2021/12/17 04:33:17;;;;;;;7.90;7.10;;;;;;;4.09;100.00;95498.31;5054703;28;20769;-80
2021/12/17 04:35:44;;;;;;;13.40;10.00;;;;;;;4.15;100.00;95490.22;5055131;28;20484;-80
2021/12/17 04:38:15;;;;;;;14.77;10.73;;;;;;;4.16;100.00;95482.34;5054290;28;20811;-81
2021/12/17 04:40:43;;;;;;;18.17;10.63;;;;;;;4.27;100.00;95487.00;5052265;28;20444;-80
2021/12/17 04:43:20;;;;;;;16.63;9.63;;;;;;;4.34;100.00;95486.63;5056094;28;20546;-80
2021/12/17 04:45:57;;;;;;;16.40;9.57;;;;;;;4.47;100.00;95496.38;5054774;28;20437;-80
2021/12/17 04:59:21;;;;;;;14.97;10.20;;;;;;;5.06;97.31;95495.84;5053052;28;20852;-81
2021/12/17 05:01:50;;;;;;;15.43;11.32;;;;;;;5.25;97.94;95499.16;5053512;28;20791;-80
2021/12/17 05:04:22;;;;;;;12.50;8.50;;;;;;;5.29;96.20;95502.41;5054394;28;20197;-80
2021/12/17 05:06:49;;;;;;;8.53;7.20;;;;;;;5.35;94.84;95499.47;5054420;28;20472;-80
2021/12/17 05:09:26;;;;;;;10.93;8.50;;;;;;;5.36;93.44;95497.72;5054663;28;20437;-80
2021/12/17 05:20:26;;;;;;;15.17;10.40;;;;;;;5.37;91.01;95510.63;5055058;28;20447;-80
2021/12/17 05:22:57;;;;;;;17.63;10.40;;;;;;;5.30;91.06;95501.50;5053179;28;21135;-80
2021/12/17 05:25:26;;;;;;;19.73;12.20;;;;;;;5.27;91.65;95505.09;5055562;28;20461;-81
2021/12/17 05:27:55;;;;;;;18.53;13.90;;;;;;;5.23;91.04;95502.75;5055190;28;20815;-81
2021/12/17 05:30:45;;;;;;;26.00;18.17;;;;;;;5.23;92.23;95503.59;5053834;28;20469;-81
2021/12/17 05:33:14;;;;;;;20.23;14.30;;;;;;;5.20;91.49;95495.09;5053908;28;20444;-81
2021/12/17 05:35:41;;;;;;;13.57;10.47;;;;;;;5.02;91.38;95489.13;5055158;28;20986;-80
2021/12/17 05:38:09;;;;;;;16.57;9.70;;;;;;;5.04;92.25;95494.25;5054098;28;20425;-80
2021/12/17 05:40:36;;;;;;;11.13;8.00;;;;;;;5.07;92.68;95492.31;5056542;28;20433;-80
2021/12/17 05:43:05;;;;;;;11.10;9.07;;;;;;;5.08;92.95;95494.00;5054092;28;20927;-79
2021/12/17 05:45:35;;;;;;;16.70;12.30;;;;;;;5.09;92.52;95494.84;5054506;28;20551;-79
2021/12/17 05:48:03;;;;;;;25.57;12.00;;;;;;;5.09;93.13;95494.84;5053914;28;20469;-81
2021/12/17 05:50:32;;;;;;;38.00;13.17;;;;;;;5.10;93.15;95494.75;5054626;28;20445;-81
2021/12/17 05:53:00;;;;;;;39.70;22.10;;;;;;;5.12;93.34;95494.69;5054253;28;20444;-80
2021/12/17 05:55:26;;;;;;;31.70;22.77;;;;;;;5.16;92.58;95485.78;5054060;28;20480;-83
2021/12/17 05:57:54;;;;;;;18.70;12.90;;;;;;;5.13;91.78;95486.78;5054494;28;20449;-81
2021/12/17 06:00:23;;;;;;;24.37;12.40;;;;;;;5.09;91.80;95487.03;5035227;28;20436;-80
2021/12/17 06:02:51;;;;;;;19.80;11.90;;;;;;;5.10;91.29;95488.72;5053702;28;20430;-80
2021/12/17 06:05:18;;;;;;;16.83;12.03;;;;;;;5.11;91.25;95495.59;5056533;28;20799;-80
2021/12/17 06:07:47;;;;;;;18.97;10.20;;;;;;;4.90;90.80;95493.22;5056831;28;20441;-80
2021/12/17 06:10:14;;;;;;;24.60;11.23;;;;;;;4.98;92.06;95503.22;5055811;28;20536;-80
2021/12/17 06:12:41;;;;;;;14.23;11.10;;;;;;;4.98;92.07;95498.88;5054827;28;20449;-80
2021/12/17 06:15:11;;;;;;;16.83;12.00;;;;;;;5.02;93.12;95512.53;5054194;28;20488;-80
2021/12/17 06:17:39;;;;;;;17.13;11.87;;;;;;;5.05;93.25;95514.97;5056196;28;20429;-80
2021/12/17 06:20:07;;;;;;;13.47;10.57;;;;;;;5.04;92.83;95515.06;5037709;28;20471;-80
2021/12/17 06:22:34;;;;;;;19.00;13.60;;;;;;;4.99;92.41;95510.09;5054274;28;20439;-80
2021/12/17 06:25:04;;;;;;;16.73;12.80;;;;;;;5.01;92.33;95510.03;5019660;28;20461;-80
2021/12/17 06:27:30;;;;;;;18.93;11.87;;;;;;;5.02;92.10;95514.31;5055951;28;20468;-80
2021/12/17 06:29:58;;;;;;;17.17;12.53;;;;;;;4.98;91.97;95513.63;5056910;28;20457;-80
2021/12/17 06:32:26;;;;;;;19.33;13.60;;;;;;;4.92;93.53;95511.38;5054809;28;20434;-80
2021/12/17 06:34:53;;;;;;;12.00;8.67;;;;;;;4.79;92.79;95510.31;5054886;28;20525;-79
2021/12/17 06:37:21;;;;;;;7.77;5.80;;;;;;;4.69;93.74;95493.53;5054448;28;20519;-81
2021/12/17 06:39:48;;;;;;;28.73;6.83;;;;;;;4.63;97.08;95489.47;5054443;28;20453;-80
2021/12/17 06:42:18;;;;;;;10.90;7.07;;;;;;;4.63;97.69;95494.69;5056129;28;20807;-79
2021/12/17 06:44:47;;;;;;;5.63;4.93;;;;;;;4.51;96.49;95492.69;5057474;28;20448;-79
2021/12/17 06:47:27;;;;;;;8.13;6.53;;;;;;;4.50;96.52;95491.84;5058177;28;20437;-79
2021/12/17 06:50:00;;;;;;;12.07;8.10;;;;;;;4.53;96.53;95493.47;5038522;28;20437;-82
2021/12/17 06:55:28;;;;;;;8.73;6.90;;;;;;;4.50;97.83;95485.81;5057125;28;20428;-80
2021/12/17 07:00:59;;;;;;;16.00;9.50;;;;;;;4.41;99.64;95500.13;5015763;28;20525;-80
2021/12/17 07:06:17;;;;;;;14.70;7.93;;;;;;;4.27;100.00;95477.44;5015486;28;20423;-78
2021/12/17 07:21:31;;;;;;;6.90;5.93;;;;;;;4.26;100.00;95483.56;4937432;29;20442;-79
2021/12/17 07:35:39;;;;;;;7.30;6.00;;;;;;;4.32;100.00;95483.22;4927552;29;20451;-77
2021/12/17 07:41:33;;;;;;;11.27;8.03;;;;;;;4.33;100.00;95479.72;4975302;28;20475;-78
2021/12/17 07:44:02;;;;;;;8.70;7.50;;;;;;;4.31;100.00;95478.13;4975296;28;20445;-78
2021/12/17 07:46:29;;;;;;;11.57;8.07;;;;;;;4.35;100.00;95467.53;5040299;28;20433;-78
2021/12/17 07:48:56;;;;;;;10.87;8.80;;;;;;;4.38;100.00;95481.28;5055942;28;20456;-79
2021/12/17 07:51:25;;;;;;;9.07;8.10;;;;;;;4.44;100.00;95484.38;5056837;28;20436;-79
2021/12/17 07:53:54;;;;;;;9.50;8.10;;;;;;;4.41;100.00;95479.34;5020393;28;20456;-78
2021/12/17 07:56:23;;;;;;;12.93;8.33;;;;;;;4.47;100.00;95481.63;5055860;28;20481;-78
2021/12/17 07:58:50;;;;;;;13.40;10.50;;;;;;;4.53;100.00;95481.31;5056617;28;20436;-79
2021/12/17 08:01:17;;;;;;;12.03;10.37;;;;;;;4.57;100.00;95476.78;5056179;28;20453;-79
2021/12/17 08:03:44;;;;;;;15.80;10.47;;;;;;;4.55;100.00;95482.06;5055652;28;20445;-79
2021/12/17 08:06:11;;;;;;;21.10;12.93;;;;;;;4.51;100.00;95475.34;5055684;28;20934;-78
2021/12/17 08:08:40;;;;;;;10.23;9.10;;;;;;;4.59;100.00;95488.78;5055710;28;20453;-78
2021/12/17 08:11:26;;;;;;;10.47;9.27;;;;;;;4.65;100.00;95490.25;5021120;28;20805;-79
2021/12/17 08:13:55;;;;;;;9.77;8.63;;;;;;;4.60;100.00;95490.47;5056051;28;20808;-79
2021/12/17 08:16:34;;;;;;;16.07;10.13;;;;;;;4.62;100.00;95493.81;5055596;28;20497;-78
2021/12/17 08:24:46;;;;;;;8.30;6.73;;;;;;;4.45;100.00;95486.06;5055268;28;20987;-79
2021/12/17 08:30:20;;;;;;;9.60;7.80;;;;;;;4.43;100.00;95484.47;5054401;28;20437;-78
2021/12/17 08:32:47;;;;;;;15.67;8.53;;;;;;;4.48;100.00;95474.66;5055865;28;20453;-78
2021/12/17 08:35:14;;;;;;;12.77;10.03;;;;;;;4.47;100.00;95471.22;5056243;28;20445;-78
2021/12/17 08:37:41;;;;;;;9.47;8.10;;;;;;;4.55;100.00;95476.03;5056406;28;20480;-79
2021/12/17 08:40:10;;;;;;;9.70;8.70;;;;;;;4.59;100.00;95465.38;5056031;28;20429;-78
2021/12/17 08:42:38;;;;;;;24.50;14.10;;;;;;;4.63;100.00;95471.28;5055778;28;20508;-78
2021/12/17 08:45:06;;;;;;;14.70;9.53;;;;;;;4.63;100.00;95474.72;5055311;28;20445;-79
2021/12/17 08:47:33;;;;;;;12.73;9.00;;;;;;;4.65;100.00;95465.09;5010406;28;20460;-78
2021/12/17 08:50:06;;;;;;;10.00;8.97;;;;;;;4.71;100.00;95466.53;5056681;28;20446;-79
2021/12/17 08:52:32;;;;;;;9.53;8.63;;;;;;;4.72;100.00;95457.81;5055754;28;20441;-77
2021/12/17 08:55:00;;;;;;;9.90;7.57;;;;;;;4.77;100.00;95453.19;5051527;28;20449;-77
2021/12/17 08:57:28;;;;;;;11.07;9.03;;;;;;;4.86;100.00;95455.28;5055323;28;20484;-78
2021/12/17 08:59:57;;;;;;;10.70;8.43;;;;;;;4.88;100.00;95450.00;5055069;28;20434;-78
2021/12/17 09:02:24;;;;;;;11.67;9.53;;;;;;;4.90;100.00;95453.38;5056075;28;20477;-78
2021/12/17 09:04:52;;;;;;;7.73;6.93;;;;;;;4.92;100.00;95448.94;5039759;28;20454;-77
2021/12/17 09:07:19;;;;;;;7.17;6.47;;;;;;;4.88;100.00;95445.66;5036622;28;20435;-79
2021/12/17 09:09:47;;;;;;;8.63;7.83;;;;;;;4.96;100.00;95448.69;5037964;28;20469;-79
2021/12/17 09:12:14;;;;;;;9.17;8.27;;;;;;;5.02;100.00;95450.13;5039869;28;20484;-78
2021/12/17 09:14:42;;;;;;;8.50;6.70;;;;;;;5.04;100.00;95447.44;5055048;28;20836;-78
2021/12/17 09:17:09;;;;;;;6.80;6.10;;;;;;;5.09;100.00;95454.06;5055480;28;20807;-78
2021/12/17 09:19:36;;;;;;;7.20;6.50;;;;;;;5.07;100.00;95436.88;5038191;28;20466;-79
2021/12/17 09:22:04;;;;;;;10.20;7.47;;;;;;;5.10;100.00;95439.28;5050580;28;20452;-81
2021/12/17 09:24:31;;;;;;;6.40;5.80;;;;;;;5.10;100.00;95428.91;5066949;28;20521;-82
2021/12/17 09:26:58;;;;;;;7.53;6.73;;;;;;;5.08;100.00;95431.56;5049925;28;20446;-81
2021/12/17 09:32:48;;;;;;;7.80;6.87;;;;;;;5.23;100.00;95429.91;5044789;28;20436;-82
2021/12/17 09:35:16;;;;;;;7.97;6.83;;;;;;;5.30;100.00;95428.66;5054219;28;20450;-82
2021/12/17 09:37:43;;;;;;;7.70;7.00;;;;;;;5.28;100.00;95426.13;5046773;28;20485;-81
2021/12/17 09:40:12;;;;;;;9.77;7.70;;;;;;;5.52;100.00;95423.91;5039236;28;20807;-82
2021/12/17 09:42:40;;;;;;;10.00;8.50;;;;;;;5.51;100.00;95411.00;5034828;28;20461;-82
2021/12/17 09:45:08;;;;;;;9.20;8.33;;;;;;;5.52;100.00;95410.91;5034397;28;20442;-80
2021/12/17 09:47:35;;;;;;;12.53;9.60;;;;;;;5.54;99.87;95403.00;5035042;28;20823;-81
2021/12/17 09:50:05;;;;;;;10.10;9.10;;;;;;;5.52;99.56;95400.50;5033703;28;20442;-80
2021/12/17 09:52:31;;;;;;;10.53;8.27;;;;;;;5.47;99.74;95392.09;5034594;28;20442;-80
2021/12/17 09:54:59;;;;;;;9.60;8.60;;;;;;;5.45;100.00;95387.91;5034832;28;20434;-80
2021/12/17 09:57:26;;;;;;;15.90;9.33;;;;;;;5.42;100.00;95382.88;5048422;28;20569;-80
2021/12/17 09:59:53;;;;;;;15.13;10.93;;;;;;;5.45;100.00;95380.94;5034521;28;20960;-80
2021/12/17 10:02:20;;;;;;;9.27;8.40;;;;;;;5.47;99.19;95371.25;5039448;28;20797;-80
2021/12/17 10:04:47;;;;;;;9.63;7.63;;;;;;;5.45;98.73;95365.31;5051850;28;20448;-80
2021/12/17 10:07:21;;;;;;;9.47;8.57;;;;;;;5.54;99.29;95361.38;5053728;28;20935;-80
2021/12/17 10:09:49;;;;;;;10.93;9.73;;;;;;;5.54;100.00;95359.59;5053607;28;20916;-80
2021/12/17 10:12:16;;;;;;;10.57;8.93;;;;;;;5.52;100.00;95351.03;5053775;28;20441;-81
2021/12/17 10:14:57;;;;;;;9.27;8.27;;;;;;;5.49;99.89;95340.81;5054623;28;20451;-80
2021/12/17 10:17:24;;;;;;;9.37;8.47;;;;;;;5.54;98.71;95345.75;5038825;28;20489;-80
2021/12/17 10:19:54;;;;;;;13.37;9.30;;;;;;;5.58;99.32;95331.63;5057606;28;20435;-80
2021/12/17 10:22:24;;;;;;;15.33;10.30;;;;;;;5.58;99.08;95332.47;5057827;28;20430;-81
2021/12/17 10:25:00;;;;;;;15.00;11.27;;;;;;;5.69;99.63;95321.41;5057164;28;21069;-81
2021/12/17 10:27:28;;;;;;;12.87;9.30;;;;;;;5.77;98.90;95316.56;5057430;28;20449;-81
2021/12/17 10:29:57;;;;;;;17.80;11.23;;;;;;;5.83;98.68;95315.41;5058349;28;20450;-82
2021/12/17 10:32:25;;;;;;;8.80;7.50;;;;;;;5.88;98.31;95310.75;5058656;28;20433;-83
2021/12/17 10:35:09;;;;;;;12.67;10.00;;;;;;;5.90;97.21;95301.13;5060637;28;21001;-81
2021/12/17 10:37:40;;;;;;;8.40;7.30;;;;;;;5.96;96.43;95320.75;5058639;28;20497;-78
2021/12/17 10:40:23;;;;;;;8.67;7.87;;;;;;;5.93;98.26;95306.13;5057646;28;20536;-78
2021/12/17 10:42:58;;;;;;;10.07;8.77;;;;;;;5.92;96.98;95294.03;5058203;28;20511;-79
2021/12/17 10:45:28;;;;;;;11.27;8.20;;;;;;;5.94;97.38;95286.97;5058579;28;20541;-79
2021/12/17 10:48:25;;;;;;;7.93;7.13;;;;;;;6.01;97.34;95282.22;5060390;28;20480;-79
2021/12/17 10:50:55;;;;;;;10.23;8.90;;;;;;;6.06;97.29;95282.78;5058907;28;20481;-79
2021/12/17 10:53:24;;;;;;;9.07;7.60;;;;;;;6.18;95.64;95267.25;5057997;28;20874;-80
2021/12/17 10:55:52;;;;;;;6.33;5.73;;;;;;;6.30;96.09;95272.63;5056867;28;20853;-79
2021/12/17 10:58:19;;;;;;;6.70;6.00;;;;;;;6.38;94.69;95265.19;5057105;28;20469;-79
2021/12/17 11:00:55;;;;;;;6.33;5.73;;;;;;;6.45;92.98;95282.13;5056753;28;20446;-80
2021/12/17 11:03:23;;;;;;;8.60;7.63;;;;;;;6.57;93.28;95289.16;5057817;28;20433;-79
2021/12/17 11:05:50;;;;;;;8.60;7.10;;;;;;;6.69;94.41;95290.16;5058487;28;20449;-80
2021/12/17 11:08:33;;;;;;;8.47;6.60;;;;;;;6.55;91.84;95282.38;5058660;28;20437;-81
2021/12/17 11:11:10;;;;;;;7.53;6.90;;;;;;;6.36;92.11;95295.69;5057950;28;20433;-79
2021/12/17 11:13:38;;;;;;;7.70;7.00;;;;;;;6.38;97.52;95286.03;5058078;28;20467;-84
2021/12/17 11:16:05;;;;;;;10.30;7.10;;;;;;;6.27;95.87;95291.06;5057863;28;20449;-86
2021/12/17 11:18:32;;;;;;;7.07;6.37;;;;;;;6.24;97.01;95286.88;5058478;28;20509;-85
2021/12/17 11:20:59;;;;;;;6.67;6.00;;;;;;;6.19;99.50;95270.69;5058714;28;20441;-88
2021/12/17 11:23:32;;;;;;;8.57;7.20;;;;;;;6.18;99.16;95272.47;5056539;28;20452;-83
2021/12/17 11:25:59;;;;;;;11.70;9.57;;;;;;;6.13;100.00;95260.66;5057998;28;21018;-80
2021/12/17 11:28:26;;;;;;;12.40;8.87;;;;;;;6.16;100.00;95255.25;5054963;28;20477;-80
2021/12/17 11:30:53;;;;;;;14.93;10.10;;;;;;;6.36;100.00;95251.38;5058922;28;20452;-81
2021/12/17 11:33:23;;;;;;;22.43;15.57;;;;;;;6.91;100.00;95238.28;5056945;28;20461;-81
2021/12/17 11:35:51;;;;;;;10.13;9.10;;;;;;;6.83;100.00;95241.41;5056996;28;20456;-80
2021/12/17 11:38:25;;;;;;;8.63;7.17;;;;;;;6.75;100.00;95240.22;5058661;28;20470;-80
2021/12/17 11:40:57;;;;;;;10.73;7.70;;;;;;;6.63;96.88;95233.16;5021880;28;20442;-80
2021/12/17 11:43:48;;;;;;;10.33;9.33;;;;;;;6.62;98.36;95229.72;5022232;28;20460;-81
2021/12/17 11:46:16;;;;;;;7.80;7.00;;;;;;;6.59;97.62;95222.09;5058513;28;20504;-80
2021/12/17 11:48:50;;;;;;;8.87;7.20;;;;;;;6.46;96.14;95208.19;5056672;28;20530;-78
2021/12/17 11:51:19;;;;;;;9.70;8.53;;;;;;;6.44;98.55;95212.66;5056828;28;20833;-77
2021/12/17 11:53:59;;;;;;;9.80;8.00;;;;;;;6.45;98.25;95206.53;5056542;28;20816;-78
2021/12/17 11:56:36;;;;;;;6.47;5.87;;;;;;;6.24;97.36;95200.03;5056648;28;20450;-78
2021/12/17 11:59:04;;;;;;;8.73;6.70;;;;;;;6.19;96.88;95206.38;5056645;28;20538;-78
2021/12/17 12:01:57;;;;;;;8.40;6.40;;;;;;;6.07;95.90;95203.69;5056201;28;20428;-78
2021/12/17 12:04:39;;;;;;;8.20;6.87;;;;;;;6.02;98.45;95200.53;5056423;28;20450;-78
2021/12/17 12:07:08;;;;;;;7.90;7.10;;;;;;;5.94;98.32;95189.78;5056573;28;20430;-78
2021/12/17 12:09:57;;;;;;;7.70;6.17;;;;;;;5.86;98.83;95180.63;5055985;28;20928;-78
2021/12/17 12:12:29;;;;;;;10.50;7.17;;;;;;;5.70;99.26;95171.25;5056673;28;20464;-78
2021/12/17 12:15:31;;;;;;;4.87;4.43;;;;;;;5.52;98.55;95187.06;5055934;28;20445;-78
2021/12/17 12:18:17;;;;;;;5.50;4.90;;;;;;;5.42;98.07;95172.91;5056157;28;20488;-78
2021/12/17 12:21:02;;;;;;;5.73;5.10;;;;;;;5.35;99.89;95168.19;5056146;28;20997;-78
2021/12/17 12:23:50;;;;;;;7.63;6.00;;;;;;;5.31;100.00;95172.72;5055312;28;20441;-78
2021/12/17 12:26:33;;;;;;;5.43;5.03;;;;;;;5.82;100.00;95160.09;5055877;28;20453;-78
2021/12/17 12:29:06;;;;;;;5.10;4.60;;;;;;;5.62;97.53;95171.72;5056302;28;20936;-77
2021/12/17 12:31:54;;;;;;;8.00;6.17;;;;;;;5.47;97.31;95154.41;5054763;28;20449;-78
2021/12/17 12:34:29;;;;;;;7.30;6.47;;;;;;;5.32;97.54;95148.38;5019210;28;20477;-78
2021/12/17 12:36:58;;;;;;;8.93;7.43;;;;;;;5.28;98.05;95129.53;5054276;28;20443;-78
2021/12/17 12:39:28;;;;;;;8.60;6.57;;;;;;;5.22;98.48;95131.66;5054191;28;20453;-78
2021/12/17 12:42:01;;;;;;;5.90;5.30;;;;;;;5.17;99.49;95131.91;5054684;28;20468;-78
2021/12/17 12:45:09;;;;;;;8.57;7.27;;;;;;;5.14;97.99;95128.66;5054288;28;20737;-78
2021/12/17 12:47:55;;;;;;;10.73;8.13;;;;;;;5.16;98.17;95142.41;4991663;28;20511;-78
2021/12/17 12:50:25;;;;;;;12.43;9.70;;;;;;;5.21;98.07;95132.59;4991954;28;20486;-78
2021/12/17 12:52:54;;;;;;;7.70;7.00;;;;;;;5.16;96.97;95152.81;4992378;28;20483;-78
2021/12/17 12:55:25;;;;;;;7.87;6.37;;;;;;;5.10;95.73;95148.81;4992046;28;20439;-78
2021/12/17 12:57:55;;;;;;;6.00;5.20;;;;;;;5.12;96.56;95138.31;4991909;28;20866;-79
2021/12/17 13:00:24;;;;;;;6.60;5.10;;;;;;;5.01;95.65;95143.34;4992373;28;20935;-79
2021/12/17 13:02:56;;;;;;;7.07;6.10;;;;;;;5.01;94.14;95144.19;4992714;28;20801;-78
2021/12/17 13:05:26;;;;;;;6.60;5.60;;;;;;;4.96;94.07;95131.44;4992779;28;21139;-78
2021/12/17 13:07:55;;;;;;;4.97;4.40;;;;;;;4.96;94.99;95131.44;4992631;28;20440;-78
2021/12/17 13:10:24;;;;;;;8.90;5.87;;;;;;;5.00;95.07;95136.47;4991958;28;20443;-79
2021/12/17 13:12:58;;;;;;;4.87;4.10;;;;;;;5.00;92.08;95126.06;4993362;28;20456;-79
2021/12/17 13:21:18;;;;;;;3.93;3.60;;;;;;;5.08;90.94;95118.63;4991802;28;20996;-78
2021/12/17 13:23:50;;;;;;;3.60;3.27;;;;;;;5.10;90.15;95127.19;5002569;28;20449;-78
2021/12/17 13:26:19;;;;;;;6.60;4.27;;;;;;;5.06;89.66;95100.53;5054405;28;20449;-79
2021/12/17 13:29:05;;;;;;;3.50;3.20;;;;;;;5.14;90.74;95118.25;5055052;28;20452;-78
2021/12/17 13:31:34;;;;;;;3.67;3.40;;;;;;;5.18;89.07;95130.16;4993569;28;20534;-78
2021/12/17 13:34:06;;;;;;;3.70;3.10;;;;;;;5.21;89.01;95140.41;4942811;28;20436;-78
2021/12/17 13:36:34;;;;;;;4.17;3.77;;;;;;;5.22;87.59;95140.31;4992673;28;20555;-76
2021/12/17 13:39:01;;;;;;;5.43;3.87;;;;;;;5.25;88.10;95124.50;4992160;28;21061;-78
2021/12/17 13:41:40;;;;;;;7.90;5.87;;;;;;;5.23;87.65;95143.75;4991867;28;20782;-78
2021/12/17 13:44:24;;;;;;;5.33;4.77;;;;;;;5.18;86.47;95131.00;4943131;28;20446;-78
2021/12/17 13:46:51;;;;;;;8.63;5.17;;;;;;;5.18;86.63;95124.94;4991348;28;20584;-81
2021/12/17 13:49:20;;;;;;;8.17;5.60;;;;;;;5.17;88.31;95138.88;4990988;28;20969;-78
2021/12/17 13:51:47;;;;;;;6.53;4.57;;;;;;;5.03;87.47;95113.72;4990300;28;20938;-78
2021/12/17 13:54:14;;;;;;;6.63;4.57;;;;;;;5.05;87.38;95118.81;4991100;28;20444;-79
2021/12/17 13:56:41;;;;;;;6.07;5.47;;;;;;;5.06;85.92;95120.50;4991293;28;20444;-78
2021/12/17 13:59:08;;;;;;;8.40;5.70;;;;;;;5.01;86.18;95120.78;4991046;28;21020;-78
2021/12/17 14:01:38;;;;;;;6.67;5.83;;;;;;;5.02;86.20;95098.19;4991165;28;20467;-78
2021/12/17 14:04:13;;;;;;;10.37;7.40;;;;;;;5.01;88.04;95112.13;4991339;28;20452;-78
2021/12/17 14:06:51;;;;;;;8.70;5.67;;;;;;;5.00;85.66;95100.91;4991022;28;20443;-78
2021/12/17 14:09:20;;;;;;;6.13;5.53;;;;;;;4.98;86.29;95107.97;5034712;28;20449;-79
2021/12/17 14:11:47;;;;;;;5.27;4.77;;;;;;;4.95;86.68;95108.97;5052491;28;20441;-78
2021/12/17 14:14:25;;;;;;;5.70;5.13;;;;;;;5.00;87.05;95126.06;5052424;28;20963;-78
2021/12/17 14:16:58;;;;;;;4.60;4.20;;;;;;;4.97;86.24;95133.13;5051963;28;20432;-78
2021/12/17 14:19:43;;;;;;;5.20;4.70;;;;;;;4.98;86.47;95124.41;5053809;28;20477;-78
2021/12/17 14:22:27;;;;;;;4.73;4.33;;;;;;;4.96;86.23;95133.22;5053679;28;21002;-78
2021/12/17 14:24:58;;;;;;;5.33;4.87;;;;;;;4.93;86.51;95142.03;5053962;28;20912;-78
2021/12/17 14:27:43;;;;;;;4.70;4.30;;;;;;;4.87;86.83;95139.78;5054444;28;20437;-78
2021/12/17 14:30:12;;;;;;;7.67;5.93;;;;;;;4.89;88.37;95140.50;5053789;28;20449;-78
2021/12/17 14:32:44;;;;;;;5.13;4.77;;;;;;;4.83;86.77;95151.28;5018392;28;20802;-78
2021/12/17 14:35:11;;;;;;;6.40;5.80;;;;;;;4.78;87.67;95168.91;5052580;28;20445;-78
2021/12/17 14:37:50;;;;;;;14.53;8.40;;;;;;;4.73;88.36;95160.53;5052569;28;20796;-79
2021/12/17 14:40:32;;;;;;;6.10;5.33;;;;;;;4.59;87.69;95155.28;5052327;28;20524;-78